This is the latest recevied weather packets stored in our database for station/object VE1RCI-13. If no packets are shown the sender has not sent any weather packets the latest 10 day(s).
| Time | Temp. | Humidity | Pressure | Rain* | Wind** | Luminosity | Snow |
|---|---|---|---|---|---|---|---|
| 1777743584 | 18.33° C | 48% | 1012 hPa | - | - | - | - |
| 1777742972 | 17.78° C | 50% | 1012.2 hPa | - | - | - | - |
| 1777742360 | 17.78° C | 51% | 1012.1 hPa | - | - | - | - |
| 1777741748 | 17.22° C | 51% | 1012.1 hPa | - | - | - | - |
| 1777741136 | 17.22° C | 53% | 1012.2 hPa | - | - | - | - |
| 1777740523 | 16.67° C | 52% | 1012.2 hPa | - | - | - | - |
| 1777739911 | 16.67° C | 55% | 1012.4 hPa | - | - | - | - |
| 1777739299 | 16.11° C | 57% | 1012.5 hPa | - | - | - | - |
| 1777738687 | 16.11° C | 58% | 1012.4 hPa | - | - | - | - |
| 1777738075 | 15.56° C | 59% | 1012.4 hPa | - | - | - | - |
| 1777737463 | 15.56° C | 61% | 1012.4 hPa | - | - | - | - |
| 1777736851 | 15° C | 61% | 1012.3 hPa | - | - | - | - |
| 1777736238 | 13.89° C | 62% | 1011 hPa | - | - | - | - |
| 1777735626 | 14.44° C | 62% | 1012.4 hPa | - | - | - | - |
| 1777735014 | 14.44° C | 62% | 1012.6 hPa | - | - | - | - |
| 1777734402 | 13.89° C | 63% | 1012.7 hPa | - | - | - | - |
| 1777733790 | 13.89° C | 63% | 1012.6 hPa | - | - | - | - |
| 1777733178 | 13.33° C | 63% | 1012.5 hPa | - | - | - | - |
| 1777732566 | 13.33° C | 63% | 1012.6 hPa | - | - | - | - |
| 1777731953 | 13.33° C | 66% | 1012.3 hPa | - | - | - | - |
| 1777731341 | 13.33° C | 66% | 1012.3 hPa | - | - | - | - |
| 1777730729 | 13.33° C | 67% | 1012.3 hPa | - | - | - | - |
| 1777730117 | 12.78° C | 67% | 1011.9 hPa | - | - | - | - |
| 1777729505 | 12.78° C | 66% | 1012.2 hPa | - | - | - | - |
| 1777728893 | 12.22° C | 67% | 1012.1 hPa | - | - | - | - |
* Rain since midnight (hover to see other rain measurements)
** Current wind speed in m/s (hover to see current wind gust speed)